createdAt,value
2018-10-01T00:00:33.900Z,12.51
2018-10-01T00:02:12.206Z,12.50
2018-10-01T00:02:46.863Z,12.57
2018-10-01T00:03:22.671Z,12.57
2018-10-01T00:03:58.176Z,12.57
2018-10-01T00:04:33.983Z,12.56
2018-10-01T00:05:09.256Z,12.53
2018-10-01T00:05:44.463Z,12.50
2018-10-01T00:06:19.710Z,12.49
2018-10-01T00:06:55.168Z,12.51
2018-10-01T00:07:30.382Z,12.52
2018-10-01T00:08:05.612Z,12.49
2018-10-01T00:08:40.512Z,12.50
2018-10-01T00:09:15.896Z,12.52
2018-10-01T00:09:51.232Z,12.45
2018-10-01T00:10:26.489Z,12.50
2018-10-01T00:11:01.660Z,12.50
2018-10-01T00:11:36.851Z,12.50
2018-10-01T00:12:12.466Z,12.50
2018-10-01T00:12:47.695Z,12.53
2018-10-01T00:13:23.021Z,12.50
2018-10-01T00:13:58.407Z,12.52
2018-10-01T00:14:33.596Z,12.51
2018-10-01T00:15:08.858Z,12.47
2018-10-01T00:15:44.049Z,12.46
2018-10-01T00:16:19.612Z,12.43
2018-10-01T00:16:54.894Z,12.45
2018-10-01T00:17:30.113Z,12.48
2018-10-01T00:18:05.739Z,12.53
2018-10-01T00:18:40.458Z,12.44
2018-10-01T00:19:20.916Z,12.44
2018-10-01T00:20:01.519Z,12.38
2018-10-01T00:20:41.932Z,12.34
2018-10-01T00:21:22.603Z,12.36
2018-10-01T00:22:02.599Z,12.32
2018-10-01T00:22:43.056Z,12.29
2018-10-01T00:23:18.300Z,12.27
2018-10-01T00:23:53.150Z,12.24
2018-10-01T00:24:28.397Z,12.21
2018-10-01T00:25:04.324Z,12.21
2018-10-01T00:25:39.555Z,12.21
2018-10-01T00:26:14.753Z,12.23
2018-10-01T00:26:50.389Z,12.19
2018-10-01T00:27:25.630Z,12.18
2018-10-01T00:28:00.326Z,12.13
2018-10-01T00:28:35.579Z,12.11
2018-10-01T00:29:10.812Z,12.11
2018-10-01T00:29:46.159Z,12.07
2018-10-01T00:30:21.529Z,12.01
2018-10-01T00:30:56.936Z,12.02
2018-10-01T00:31:32.224Z,12.07
2018-10-01T00:32:07.539Z,12.02
2018-10-01T00:32:43.059Z,12.00
2018-10-01T00:33:18.376Z,12.00
2018-10-01T00:33:53.686Z,11.99
2018-10-01T00:34:28.954Z,12.03
2018-10-01T00:35:04.245Z,12.05
2018-10-01T00:35:39.504Z,12.02
2018-10-01T00:36:14.728Z,11.99
2018-10-01T00:36:50.149Z,12.01
2018-10-01T00:37:25.366Z,12.02
2018-10-01T00:38:00.732Z,12.00
2018-10-01T00:38:35.949Z,12.05
2018-10-01T00:39:11.760Z,12.07
2018-10-01T00:39:46.969Z,12.10
2018-10-01T00:40:22.232Z,12.09
2018-10-01T00:40:57.572Z,12.09
2018-10-01T00:41:32.766Z,12.05
2018-10-01T00:42:08.049Z,12.07
2018-10-01T00:42:43.487Z,12.07
2018-10-01T00:43:18.833Z,12.06
2018-10-01T00:43:54.096Z,12.13
2018-10-01T00:44:29.421Z,12.13
2018-10-01T00:45:05.033Z,12.12
2018-10-01T00:45:40.250Z,12.12
2018-10-01T00:46:14.923Z,12.12
2018-10-01T00:46:50.220Z,12.15
2018-10-01T00:47:25.501Z,12.14
2018-10-01T00:48:01.136Z,12.12
2018-10-01T00:48:36.356Z,12.10
2018-10-01T00:49:11.049Z,12.13
2018-10-01T00:49:45.777Z,12.14
2018-10-01T00:50:21.041Z,12.13
2018-10-01T00:50:56.757Z,12.11
2018-10-01T00:51:32.101Z,12.07
2018-10-01T00:52:07.823Z,12.07
2018-10-01T00:52:43.052Z,12.03
2018-10-01T00:53:18.293Z,12.06
2018-10-01T00:53:53.638Z,12.07
2018-10-01T00:54:28.842Z,12.08
2018-10-01T00:55:03.521Z,12.07
2018-10-01T00:55:38.188Z,12.09
2018-10-01T00:56:13.412Z,12.06
2018-10-01T00:56:48.097Z,12.07
2018-10-01T00:57:22.867Z,12.06
2018-10-01T00:57:58.440Z,12.02
2018-10-01T00:58:33.780Z,12.05
2018-10-01T00:59:08.995Z,12.06
2018-10-01T00:59:44.257Z,12.06
2018-10-01T01:00:18.958Z,12.03
2018-10-01T01:00:53.720Z,12.03
2018-10-01T01:01:28.553Z,12.07
2018-10-01T01:02:03.191Z,12.02
2018-10-01T01:02:37.831Z,12.05
2018-10-01T01:03:12.503Z,12.06
2018-10-01T01:03:48.007Z,12.05
2018-10-01T01:04:23.309Z,12.08
2018-10-01T01:04:58.009Z,12.06
2018-10-01T01:05:33.220Z,12.05
2018-10-01T01:06:08.840Z,12.05
2018-10-01T01:06:44.528Z,12.03
2018-10-01T01:07:19.904Z,12.01
2018-10-01T01:07:54.688Z,11.98
2018-10-01T01:08:29.404Z,12.02
2018-10-01T01:09:05.633Z,12.01
2018-10-01T01:09:40.328Z,11.97
2018-10-01T01:10:14.979Z,12.03
2018-10-01T01:10:50.424Z,12.00
2018-10-01T01:11:25.195Z,11.70
2018-10-01T01:12:00.508Z,12.01
2018-10-01T01:12:35.708Z,12.06
2018-10-01T01:13:10.910Z,12.06
2018-10-01T01:13:46.299Z,12.06
2018-10-01T01:14:21.584Z,12.08
2018-10-01T01:14:56.828Z,12.09
2018-10-01T01:15:32.057Z,12.12
2018-10-01T01:16:07.252Z,12.10
2018-10-01T01:16:42.721Z,12.11
2018-10-01T01:17:17.411Z,12.10
2018-10-01T01:17:52.779Z,12.09
2018-10-01T01:18:28.022Z,12.08
2018-10-01T01:19:03.235Z,12.09
2018-10-01T01:19:37.871Z,12.15
2018-10-01T01:20:13.414Z,12.13
2018-10-01T01:20:48.052Z,12.11
2018-10-01T01:21:23.473Z,12.08
2018-10-01T01:21:58.420Z,12.08
2018-10-01T01:22:33.673Z,12.04
2018-10-01T01:23:08.884Z,12.10
2018-10-01T01:23:44.353Z,12.08
2018-10-01T01:24:19.598Z,12.09
2018-10-01T01:24:55.063Z,12.04
2018-10-01T01:25:30.349Z,12.03
2018-10-01T01:26:05.516Z,12.04
2018-10-01T01:26:40.718Z,12.08
2018-10-01T01:27:16.098Z,12.09
2018-10-01T01:27:51.312Z,12.02
2018-10-01T01:28:26.580Z,12.00
2018-10-01T01:29:01.838Z,11.97
2018-10-01T01:29:37.016Z,11.94
2018-10-01T01:30:11.628Z,11.98
2018-10-01T01:30:46.841Z,11.97
2018-10-01T01:31:22.348Z,11.96
2018-10-01T01:31:57.771Z,11.94
2018-10-01T01:32:32.991Z,11.92
2018-10-01T01:33:08.184Z,11.94
2018-10-01T01:33:42.822Z,11.90
2018-10-01T01:34:18.118Z,11.90
2018-10-01T01:34:53.479Z,11.92
2018-10-01T01:35:28.575Z,11.93
2018-10-01T01:36:03.945Z,11.93
2018-10-01T01:36:38.932Z,11.92
2018-10-01T01:37:13.554Z,11.90
2018-10-01T01:37:48.421Z,11.93
2018-10-01T01:38:23.604Z,11.93
2018-10-01T01:38:58.833Z,11.94
2018-10-01T01:39:33.993Z,11.98
2018-10-01T01:40:08.962Z,11.95
2018-10-01T01:40:44.115Z,12.03
2018-10-01T01:41:18.813Z,12.03
2018-10-01T01:41:53.482Z,12.02
2018-10-01T01:42:28.548Z,12.00
2018-10-01T01:43:03.422Z,12.03
2018-10-01T01:43:38.054Z,12.03
2018-10-01T01:44:12.650Z,11.99
2018-10-01T01:44:47.375Z,12.01
2018-10-01T01:45:22.665Z,12.01
2018-10-01T01:45:57.362Z,12.00
2018-10-01T01:46:32.729Z,11.99
2018-10-01T01:47:07.371Z,11.98
2018-10-01T01:47:41.988Z,11.91
2018-10-01T01:48:17.307Z,11.92
2018-10-01T01:48:52.540Z,11.93
2018-10-01T01:49:27.809Z,11.92
2018-10-01T01:50:03.031Z,11.94
2018-10-01T01:50:38.216Z,11.91
2018-10-01T01:51:13.420Z,11.95
2018-10-01T01:51:48.733Z,11.91
2018-10-01T01:52:23.962Z,11.91
2018-10-01T01:52:59.455Z,11.91
2018-10-01T01:53:34.643Z,11.89
2018-10-01T01:54:09.251Z,11.94
2018-10-01T01:54:44.403Z,11.94
2018-10-01T01:55:19.220Z,11.92
2018-10-01T01:55:53.896Z,11.92
2018-10-01T01:56:28.531Z,11.95
2018-10-01T01:57:03.845Z,11.95
2018-10-01T01:57:38.450Z,11.93
2018-10-01T01:58:13.621Z,11.95
2018-10-01T01:58:48.575Z,11.91
2018-10-01T01:59:23.344Z,11.96
2018-10-01T01:59:58.680Z,12.05
2018-10-01T02:00:34.062Z,12.03
2018-10-01T02:01:08.724Z,12.14
2018-10-01T02:01:43.327Z,12.07
2018-10-01T02:02:18.037Z,12.05
2018-10-01T02:02:52.751Z,11.95
2018-10-01T02:03:27.987Z,11.94
2018-10-01T02:04:02.837Z,11.96
2018-10-01T02:04:37.439Z,11.91
2018-10-01T02:05:12.629Z,11.87
2018-10-01T02:05:47.906Z,11.88
2018-10-01T02:06:23.211Z,11.87
2018-10-01T02:06:58.480Z,11.87
2018-10-01T02:07:33.712Z,11.82
2018-10-01T02:08:08.867Z,11.78
2018-10-01T02:08:44.060Z,11.75
2018-10-01T02:09:18.781Z,11.72
2018-10-01T02:09:53.424Z,11.71
2018-10-01T02:10:28.036Z,11.70
2018-10-01T02:11:02.667Z,11.68
2018-10-01T02:11:37.920Z,11.73
2018-10-01T02:12:13.124Z,11.69
2018-10-01T02:12:48.733Z,11.64
2018-10-01T02:13:23.939Z,11.61
2018-10-01T02:13:58.548Z,11.58
2018-10-01T02:14:33.736Z,11.55
2018-10-01T02:15:08.463Z,11.54
2018-10-01T02:15:43.658Z,11.49
2018-10-01T02:16:18.317Z,11.48
2018-10-01T02:16:53.571Z,11.46
2018-10-01T02:17:28.201Z,11.42
2018-10-01T02:18:02.388Z,11.43
2018-10-01T02:18:37.632Z,11.40
2018-10-01T02:19:12.832Z,11.41
2018-10-01T02:19:48.065Z,11.35
2018-10-01T02:20:22.755Z,11.31
2018-10-01T02:20:57.409Z,11.35
2018-10-01T02:21:32.067Z,11.33
2018-10-01T02:22:07.028Z,11.29
2018-10-01T02:22:41.794Z,11.33
2018-10-01T02:23:16.467Z,11.32
2018-10-01T02:23:50.934Z,11.34
2018-10-01T02:24:25.597Z,11.37
2018-10-01T02:25:00.308Z,11.37
2018-10-01T02:25:34.945Z,11.36
2018-10-01T02:26:09.868Z,11.31
2018-10-01T02:26:44.507Z,11.38
2018-10-01T02:27:19.263Z,11.38
2018-10-01T02:27:53.941Z,11.27
2018-10-01T02:28:28.143Z,11.23
2018-10-01T02:29:02.352Z,11.21
2018-10-01T02:29:36.971Z,11.23
2018-10-01T02:30:11.665Z,11.22
2018-10-01T02:30:46.276Z,11.27
2018-10-01T02:31:20.460Z,11.30
2018-10-01T02:31:55.362Z,11.30
2018-10-01T02:32:29.989Z,11.36
2018-10-01T02:33:04.678Z,11.38
2018-10-01T02:33:39.304Z,11.40
2018-10-01T02:34:14.019Z,11.36
2018-10-01T02:34:48.722Z,11.38
2018-10-01T02:35:23.509Z,11.42
2018-10-01T02:35:58.188Z,11.41
2018-10-01T02:36:32.832Z,11.44
2018-10-01T02:37:07.944Z,11.43
2018-10-01T02:37:42.613Z,11.41
2018-10-01T02:38:17.284Z,11.38
2018-10-01T02:38:52.285Z,11.42
2018-10-01T02:39:27.022Z,11.38
2018-10-01T02:40:02.048Z,11.34
2018-10-01T02:40:37.027Z,11.40
2018-10-01T02:41:11.658Z,11.41
2018-10-01T02:41:46.291Z,11.41
2018-10-01T02:42:21.128Z,11.37
2018-10-01T02:42:55.859Z,11.39
2018-10-01T02:43:30.511Z,11.41
2018-10-01T02:44:05.656Z,11.38
2018-10-01T02:44:40.372Z,11.37
2018-10-01T02:45:15.063Z,11.37
2018-10-01T02:45:49.862Z,11.35
2018-10-01T02:46:24.552Z,11.33
2018-10-01T02:46:59.245Z,11.35
2018-10-01T02:47:33.885Z,11.34
2018-10-01T02:48:08.789Z,11.29
2018-10-01T02:48:43.485Z,11.24
2018-10-01T02:49:18.315Z,11.23
2018-10-01T02:49:53.491Z,11.22
2018-10-01T02:50:28.336Z,11.27
2018-10-01T02:51:02.980Z,11.24
2018-10-01T02:52:42.585Z,11.24
2018-10-01T02:53:22.429Z,11.14
2018-10-01T02:54:02.492Z,11.19
2018-10-01T02:54:37.115Z,11.16
2018-10-01T02:55:11.756Z,11.14
2018-10-01T02:55:46.429Z,11.12
2018-10-01T02:56:21.099Z,11.14
2018-10-01T02:56:55.854Z,11.13
2018-10-01T02:57:30.489Z,11.18
2018-10-01T02:58:05.191Z,11.16
2018-10-01T02:58:39.992Z,11.17
2018-10-01T02:59:14.968Z,11.18
2018-10-01T02:59:49.671Z,11.20
2018-10-01T03:00:24.351Z,11.17
2018-10-01T03:00:59.777Z,11.19
2018-10-01T03:01:34.422Z,11.21
2018-10-01T03:02:09.044Z,11.18
2018-10-01T03:02:43.686Z,11.18
2018-10-01T03:03:18.416Z,11.13
2018-10-01T03:03:53.195Z,11.14
2018-10-01T03:04:28.649Z,11.12
2018-10-01T03:05:03.340Z,11.08
2018-10-01T03:05:38.177Z,11.09
2018-10-01T03:06:12.795Z,11.05
2018-10-01T03:06:52.415Z,11.02
2018-10-01T03:07:27.520Z,10.99
2018-10-01T03:08:02.173Z,11.00
2018-10-01T03:08:36.848Z,10.97
2018-10-01T03:09:14.311Z,11.05
2018-10-01T03:09:49.397Z,11.03
2018-10-01T03:10:24.179Z,11.01
2018-10-01T03:10:58.828Z,10.96
2018-10-01T03:11:33.499Z,11.01
2018-10-01T03:12:08.210Z,10.99
2018-10-01T03:12:42.536Z,10.96
2018-10-01T03:13:17.249Z,10.94
2018-10-01T03:13:52.039Z,10.92
2018-10-01T03:14:26.939Z,10.91
2018-10-01T03:15:01.626Z,10.87
2018-10-01T03:15:36.278Z,10.90
2018-10-01T03:16:10.954Z,10.82
2018-10-01T03:16:45.588Z,10.84
2018-10-01T03:17:20.772Z,10.88
2018-10-01T03:17:55.575Z,10.92
2018-10-01T03:18:30.238Z,10.95
2018-10-01T03:19:05.788Z,10.92
2018-10-01T03:19:40.440Z,10.87
2018-10-01T03:20:15.134Z,10.84
2018-10-01T03:20:50.106Z,10.81
2018-10-01T03:21:24.909Z,10.81
2018-10-01T03:21:59.729Z,10.79
2018-10-01T03:22:34.344Z,10.80
2018-10-01T03:23:08.974Z,10.78
2018-10-01T03:23:43.618Z,10.75
2018-10-01T03:24:18.320Z,10.69
2018-10-01T03:24:53.228Z,10.66
2018-10-01T03:25:27.954Z,10.77
2018-10-01T03:26:02.625Z,10.74
2018-10-01T03:26:37.278Z,10.72
2018-10-01T03:27:11.916Z,10.68
2018-10-01T03:27:46.742Z,10.68
2018-10-01T03:28:21.734Z,10.67
2018-10-01T03:28:56.707Z,10.63
2018-10-01T03:29:31.380Z,10.62
2018-10-01T03:30:07.606Z,10.60
2018-10-01T03:30:42.272Z,10.61
2018-10-01T03:31:16.921Z,10.62
2018-10-01T03:31:51.948Z,10.64
2018-10-01T03:32:26.794Z,10.64
2018-10-01T03:33:01.418Z,10.65
2018-10-01T03:33:36.080Z,10.65
2018-10-01T03:34:10.726Z,10.63
2018-10-01T03:34:45.477Z,10.65
2018-10-01T03:35:19.729Z,10.66
2018-10-01T03:35:54.542Z,10.63
2018-10-01T03:36:29.198Z,10.75
2018-10-01T03:37:03.937Z,10.75
2018-10-01T03:37:38.580Z,10.66
2018-10-01T03:38:13.246Z,10.70
2018-10-01T03:38:47.477Z,10.73
2018-10-01T03:39:22.169Z,10.71
2018-10-01T03:39:57.186Z,10.72
2018-10-01T03:40:32.853Z,10.70
2018-10-01T03:41:07.744Z,10.70
2018-10-01T03:41:42.393Z,10.73
2018-10-01T03:42:16.523Z,10.71
2018-10-01T03:42:51.284Z,10.66
2018-10-01T03:43:25.948Z,10.65
2018-10-01T03:44:00.606Z,10.67
2018-10-01T03:44:34.762Z,10.62
2018-10-01T03:45:09.607Z,10.58
2018-10-01T03:45:44.238Z,10.54
2018-10-01T03:46:18.914Z,10.55
2018-10-01T03:46:53.592Z,10.49
2018-10-01T03:47:28.269Z,10.47
2018-10-01T03:48:02.928Z,10.58
2018-10-01T03:48:37.598Z,10.57
2018-10-01T03:49:12.264Z,10.50
2018-10-01T03:49:47.024Z,10.49
2018-10-01T03:50:21.731Z,10.49
2018-10-01T03:50:56.521Z,10.48
2018-10-01T03:51:31.189Z,10.48
2018-10-01T03:52:05.903Z,10.47
2018-10-01T03:52:40.769Z,10.47
2018-10-01T03:53:15.519Z,10.45
2018-10-01T03:53:50.296Z,10.55
2018-10-01T03:54:25.000Z,10.54
2018-10-01T03:54:59.707Z,10.55
2018-10-01T03:55:34.327Z,10.53
2018-10-01T03:56:09.609Z,10.52
2018-10-01T03:56:44.253Z,10.48
2018-10-01T03:57:18.919Z,10.51
2018-10-01T03:57:53.668Z,10.51
2018-10-01T03:58:28.588Z,10.50
2018-10-01T03:59:03.266Z,10.53
2018-10-01T03:59:38.357Z,10.59
2018-10-01T04:00:13.009Z,10.55
2018-10-01T04:00:47.650Z,10.52
2018-10-01T04:01:22.330Z,10.54
2018-10-01T04:01:57.041Z,10.52
2018-10-01T04:02:31.683Z,10.46
2018-10-01T04:03:06.515Z,10.47
2018-10-01T04:03:41.758Z,10.40
2018-10-01T04:04:15.932Z,10.38
2018-10-01T04:04:50.722Z,10.47
2018-10-01T04:05:25.464Z,10.52
2018-10-01T04:06:00.504Z,10.52
2018-10-01T04:06:35.119Z,10.49
2018-10-01T04:07:09.741Z,10.43
2018-10-01T04:07:44.374Z,10.42
2018-10-01T04:08:19.072Z,10.43
2018-10-01T04:08:53.855Z,10.46
2018-10-01T04:09:28.622Z,10.43
2018-10-01T04:10:03.267Z,10.43
2018-10-01T04:10:38.011Z,10.44
2018-10-01T04:11:12.824Z,10.44
2018-10-01T04:11:47.460Z,10.48
2018-10-01T04:12:22.127Z,10.46
2018-10-01T04:12:56.818Z,10.49
2018-10-01T04:13:31.452Z,10.49
2018-10-01T04:14:06.209Z,10.50
2018-10-01T04:14:40.843Z,10.54
2018-10-01T04:15:15.498Z,10.53
2018-10-01T04:15:50.569Z,10.53
2018-10-01T04:16:25.228Z,10.51
2018-10-01T04:16:59.979Z,10.44
2018-10-01T04:17:34.744Z,10.48
2018-10-01T04:18:09.368Z,10.50
2018-10-01T04:18:44.016Z,10.50
2018-10-01T04:19:18.842Z,10.40
2018-10-01T04:19:53.672Z,10.42
2018-10-01T04:20:28.363Z,10.42
2018-10-01T04:21:03.042Z,10.41
2018-10-01T04:21:37.684Z,10.41
2018-10-01T04:22:12.389Z,10.42
2018-10-01T04:22:47.060Z,10.40
2018-10-01T04:23:21.903Z,10.38
2018-10-01T04:23:56.753Z,10.37
2018-10-01T04:24:31.411Z,10.38
2018-10-01T04:25:07.563Z,10.41
2018-10-01T04:25:42.117Z,10.46
2018-10-01T04:26:16.253Z,10.47
2018-10-01T04:26:50.511Z,10.50
2018-10-01T04:27:24.780Z,10.48
2018-10-01T04:27:58.984Z,10.50
2018-10-01T04:28:33.713Z,10.52
2018-10-01T04:29:08.384Z,10.56
2018-10-01T04:29:43.028Z,10.51
2018-10-01T04:30:17.690Z,10.50
2018-10-01T04:30:52.402Z,10.51
2018-10-01T04:31:27.073Z,10.53
2018-10-01T04:32:02.288Z,10.54
2018-10-01T04:32:36.915Z,10.52
2018-10-01T04:33:11.569Z,10.49
2018-10-01T04:33:46.207Z,10.52
2018-10-01T04:34:21.331Z,10.50
2018-10-01T04:34:56.148Z,10.54
2018-10-01T04:35:30.786Z,10.53
2018-10-01T04:36:05.494Z,10.56
2018-10-01T04:36:40.165Z,10.59
2018-10-01T04:37:14.838Z,10.52
2018-10-01T04:37:49.556Z,10.55
2018-10-01T04:38:24.293Z,10.53
2018-10-01T04:38:59.004Z,10.56
2018-10-01T04:39:33.708Z,10.56
2018-10-01T04:40:08.748Z,10.59
2018-10-01T04:40:43.494Z,10.63
2018-10-01T04:41:18.635Z,10.64
2018-10-01T04:41:53.360Z,10.66
2018-10-01T04:42:28.181Z,10.65
2018-10-01T04:43:03.118Z,10.63
2018-10-01T04:43:37.808Z,10.65
2018-10-01T04:44:12.489Z,10.67
2018-10-01T04:44:47.104Z,10.63
2018-10-01T04:45:21.795Z,10.68
2018-10-01T04:45:56.538Z,10.63
2018-10-01T04:46:31.168Z,10.59
2018-10-01T04:47:05.810Z,10.61
2018-10-01T04:47:40.457Z,10.61
2018-10-01T04:48:15.107Z,10.59
2018-10-01T04:48:49.812Z,10.57
2018-10-01T04:49:24.692Z,10.61
2018-10-01T04:49:59.333Z,10.59
2018-10-01T04:50:34.084Z,10.56
2018-10-01T04:51:08.711Z,10.59
2018-10-01T04:51:43.773Z,10.67
2018-10-01T04:52:18.428Z,10.70
2018-10-01T04:52:53.595Z,10.68
2018-10-01T04:53:28.259Z,10.68
2018-10-01T04:54:02.960Z,10.87
2018-10-01T04:54:37.691Z,10.88
2018-10-01T04:55:12.383Z,10.79
2018-10-01T04:55:47.156Z,10.86
2018-10-01T04:56:22.003Z,10.76
2018-10-01T04:56:56.793Z,10.86
2018-10-01T04:57:31.496Z,10.77
2018-10-01T04:58:06.159Z,10.83
2018-10-01T04:58:41.117Z,10.78
2018-10-01T04:59:15.909Z,10.76
2018-10-01T04:59:50.636Z,10.74
2018-10-01T05:00:25.346Z,10.74
2018-10-01T05:01:00.017Z,10.72
2018-10-01T05:01:34.663Z,10.69
2018-10-01T05:02:09.468Z,10.77
2018-10-01T05:02:44.147Z,10.82
2018-10-01T05:03:18.964Z,10.79
2018-10-01T05:03:54.124Z,10.81
2018-10-01T05:04:28.988Z,10.76
2018-10-01T05:05:03.823Z,10.75
2018-10-01T05:05:38.579Z,10.84
2018-10-01T05:06:13.257Z,10.85
2018-10-01T05:06:48.201Z,10.92
2018-10-01T05:07:23.072Z,10.86
2018-10-01T05:07:57.786Z,10.88
2018-10-01T05:08:32.443Z,10.84
2018-10-01T05:09:08.946Z,10.82
2018-10-01T05:09:43.596Z,10.80
2018-10-01T05:10:18.291Z,10.75
2018-10-01T05:10:53.308Z,10.72
2018-10-01T05:11:27.999Z,10.76
2018-10-01T05:12:03.032Z,10.73
2018-10-01T05:12:37.689Z,10.76
2018-10-01T05:13:12.475Z,10.85
2018-10-01T05:13:47.157Z,10.82
2018-10-01T05:14:21.928Z,10.73
2018-10-01T05:14:56.718Z,10.73
2018-10-01T05:15:31.576Z,10.81
2018-10-01T05:16:06.895Z,10.81
2018-10-01T05:16:41.553Z,10.90
2018-10-01T05:17:16.838Z,10.80
2018-10-01T05:17:51.533Z,10.85
2018-10-01T05:18:26.264Z,10.80
2018-10-01T05:19:00.945Z,10.77
2018-10-01T05:19:35.601Z,10.74
2018-10-01T05:20:10.281Z,10.80
2018-10-01T05:20:44.510Z,10.84
2018-10-01T05:21:19.286Z,10.78
2018-10-01T05:21:54.001Z,10.67
2018-10-01T05:22:28.754Z,10.65
2018-10-01T05:23:03.456Z,10.63
2018-10-01T05:23:38.109Z,10.64
2018-10-01T05:24:12.893Z,10.72
2018-10-01T05:24:47.556Z,10.70
2018-10-01T05:25:22.493Z,10.88
2018-10-01T05:25:57.368Z,10.98
2018-10-01T05:26:32.039Z,10.87
2018-10-01T05:27:07.132Z,10.79
2018-10-01T05:27:42.751Z,10.75
2018-10-01T05:28:17.782Z,10.77
2018-10-01T05:28:52.496Z,10.77
2018-10-01T05:29:27.210Z,10.73
2018-10-01T05:30:01.876Z,10.68
2018-10-01T05:30:36.602Z,10.69
2018-10-01T05:31:11.263Z,10.70
2018-10-01T05:31:45.943Z,10.65
2018-10-01T05:32:20.670Z,10.61
2018-10-01T05:32:55.330Z,10.59
2018-10-01T05:33:29.987Z,10.75
2018-10-01T05:34:04.599Z,10.74
2018-10-01T05:34:39.296Z,10.71
2018-10-01T05:35:13.475Z,10.79
2018-10-01T05:35:48.149Z,10.68
2018-10-01T05:36:23.160Z,10.65
2018-10-01T05:36:57.861Z,10.58
2018-10-01T05:37:32.506Z,10.58
2018-10-01T05:38:07.524Z,10.65
2018-10-01T05:38:42.153Z,10.61
2018-10-01T05:39:16.864Z,10.58
2018-10-01T05:39:51.708Z,10.59
2018-10-01T05:40:26.519Z,10.55
2018-10-01T05:41:01.196Z,10.69
2018-10-01T05:41:35.807Z,10.70
2018-10-01T05:42:10.435Z,10.77
2018-10-01T05:42:45.329Z,10.88
2018-10-01T05:43:20.064Z,10.98
2018-10-01T05:43:54.984Z,10.96
2018-10-01T05:44:29.669Z,10.87
2018-10-01T05:45:05.474Z,10.78
2018-10-01T05:45:40.132Z,10.66
2018-10-01T05:46:14.773Z,10.67
2018-10-01T05:46:49.531Z,10.71
2018-10-01T05:47:24.296Z,10.64
2018-10-01T05:47:59.349Z,10.65
2018-10-01T05:48:34.083Z,10.59
2018-10-01T05:49:09.221Z,10.56
2018-10-01T05:49:44.124Z,10.61
2018-10-01T05:50:18.873Z,10.68
2018-10-01T05:50:54.048Z,10.66
2018-10-01T05:51:29.307Z,10.63
2018-10-01T05:52:03.952Z,10.65
2018-10-01T05:52:38.624Z,10.79
2018-10-01T05:53:13.277Z,10.83
2018-10-01T05:53:47.947Z,10.71
2018-10-01T05:54:22.720Z,10.79
2018-10-01T05:54:57.731Z,10.77
2018-10-01T05:55:32.611Z,10.77
2018-10-01T05:56:07.352Z,10.89
2018-10-01T05:56:41.960Z,10.93
2018-10-01T05:57:16.415Z,10.93
2018-10-01T05:57:51.757Z,10.90
2018-10-01T05:58:26.675Z,10.67
2018-10-01T05:59:01.413Z,10.63
2018-10-01T05:59:36.056Z,10.59
2018-10-01T06:00:10.756Z,10.68
2018-10-01T06:00:45.400Z,10.67
2018-10-01T06:01:20.827Z,10.73
2018-10-01T06:01:55.760Z,10.72
2018-10-01T06:02:30.466Z,10.71
2018-10-01T06:03:05.117Z,10.73
2018-10-01T06:03:39.732Z,10.64
2018-10-01T06:04:14.383Z,10.58
2018-10-01T06:04:49.155Z,10.63
2018-10-01T06:05:24.101Z,10.70
2018-10-01T06:05:58.764Z,10.66
2018-10-01T06:06:33.404Z,10.64
2018-10-01T06:07:08.063Z,10.74
2018-10-01T06:07:42.696Z,10.75
2018-10-01T06:08:18.171Z,10.77
2018-10-01T06:08:52.943Z,10.72
2018-10-01T06:09:27.756Z,10.77
2018-10-01T06:10:02.473Z,10.75
2018-10-01T06:10:37.138Z,10.84
2018-10-01T06:11:11.767Z,10.77
2018-10-01T06:11:46.550Z,10.89
2018-10-01T06:12:21.917Z,10.89
2018-10-01T06:12:56.879Z,10.91
2018-10-01T06:13:31.849Z,10.84
2018-10-01T06:14:06.843Z,10.84
2018-10-01T06:14:41.541Z,10.86
2018-10-01T06:15:16.192Z,10.78
2018-10-01T06:15:51.003Z,10.80
2018-10-01T06:16:25.722Z,10.95
2018-10-01T06:17:00.546Z,11.02
2018-10-01T06:17:35.178Z,11.05
2018-10-01T06:18:09.927Z,10.92
2018-10-01T06:18:44.585Z,10.93
2018-10-01T06:19:19.882Z,10.94
2018-10-01T06:19:54.653Z,10.91
2018-10-01T06:20:29.424Z,10.91
2018-10-01T06:21:04.214Z,10.86
2018-10-01T06:21:39.215Z,10.80
2018-10-01T06:22:13.875Z,10.96
2018-10-01T06:22:48.568Z,10.96
2018-10-01T06:23:23.451Z,10.93
2018-10-01T06:23:58.241Z,10.97
2018-10-01T06:24:32.867Z,11.00
2018-10-01T06:25:07.917Z,11.02
2018-10-01T06:25:43.092Z,10.99
2018-10-01T06:26:17.771Z,11.07
2018-10-01T06:26:52.468Z,11.15
2018-10-01T06:27:27.170Z,11.12
2018-10-01T06:28:01.803Z,11.24
2018-10-01T06:28:36.468Z,11.15
2018-10-01T06:29:11.232Z,11.21
2018-10-01T06:29:45.869Z,11.20
2018-10-01T06:30:20.681Z,11.17
2018-10-01T06:30:55.582Z,11.11
2018-10-01T06:31:30.341Z,11.05
2018-10-01T06:32:04.993Z,11.03
2018-10-01T06:32:39.700Z,11.12
2018-10-01T06:33:14.358Z,11.12
2018-10-01T06:33:49.219Z,11.22
2018-10-01T06:34:24.554Z,11.29
2018-10-01T06:34:59.224Z,11.21
2018-10-01T06:35:33.945Z,11.15
2018-10-01T06:36:08.664Z,11.14
2018-10-01T06:36:43.499Z,11.18
2018-10-01T06:37:18.172Z,11.21
2018-10-01T06:37:52.942Z,11.27
2018-10-01T06:38:27.961Z,11.24
2018-10-01T06:39:03.020Z,11.28
2018-10-01T06:39:37.697Z,11.29
2018-10-01T06:40:12.512Z,11.25
2018-10-01T06:40:46.659Z,11.18
2018-10-01T06:41:21.680Z,11.18
2018-10-01T06:41:56.488Z,11.27
2018-10-01T06:42:31.295Z,11.32
2018-10-01T06:43:05.965Z,11.31
2018-10-01T06:43:40.631Z,11.34
2018-10-01T06:44:15.326Z,11.35
2018-10-01T06:44:50.068Z,11.40
2018-10-01T06:45:24.926Z,11.26
2018-10-01T06:45:59.592Z,11.30
2018-10-01T06:46:34.255Z,11.48
2018-10-01T06:47:08.939Z,11.57
2018-10-01T06:47:44.311Z,11.57
2018-10-01T06:48:19.035Z,11.55
2018-10-01T06:48:53.884Z,11.56
2018-10-01T06:49:28.746Z,11.50
2018-10-01T06:50:03.408Z,11.48
2018-10-01T06:50:38.088Z,11.50
2018-10-01T06:51:12.828Z,11.61
2018-10-01T06:51:47.653Z,11.57
2018-10-01T06:52:22.367Z,11.56
2018-10-01T06:52:57.057Z,11.49
2018-10-01T06:53:31.696Z,11.57
2018-10-01T06:54:06.672Z,11.63
2018-10-01T06:54:42.008Z,11.56
2018-10-01T06:55:16.699Z,11.51
2018-10-01T06:55:51.537Z,11.56
2018-10-01T06:56:26.364Z,11.58
2018-10-01T06:57:01.069Z,11.44
2018-10-01T06:57:35.700Z,11.46
2018-10-01T06:58:10.376Z,11.52
2018-10-01T06:58:45.017Z,11.54
2018-10-01T06:59:20.228Z,11.53
2018-10-01T06:59:54.960Z,11.47
2018-10-01T07:00:29.872Z,11.44
2018-10-01T07:01:04.572Z,11.48
2018-10-01T07:01:39.422Z,11.48
2018-10-01T07:02:14.183Z,11.46
2018-10-01T07:02:49.039Z,11.56
2018-10-01T07:03:24.831Z,11.53
2018-10-01T07:04:00.447Z,11.47
2018-10-01T07:04:35.255Z,11.48
2018-10-01T07:05:10.260Z,11.43
2018-10-01T07:05:45.022Z,11.40
2018-10-01T07:06:19.769Z,11.39
2018-10-01T07:06:59.112Z,11.47
2018-10-01T07:07:33.963Z,11.44
2018-10-01T07:08:08.865Z,11.57
2018-10-01T07:08:43.745Z,11.52
2018-10-01T07:09:18.758Z,11.56
2018-10-01T07:09:56.691Z,11.61
2018-10-01T07:10:31.650Z,11.70
2018-10-01T07:11:06.558Z,11.79
2018-10-01T07:11:41.644Z,11.69
2018-10-01T07:12:16.372Z,11.65
2018-10-01T07:12:51.208Z,11.71
2018-10-01T07:13:25.942Z,11.72
2018-10-01T07:14:00.647Z,11.71
2018-10-01T07:14:35.881Z,11.73
2018-10-01T07:15:11.102Z,11.73
2018-10-01T07:15:45.731Z,11.66
2018-10-01T07:16:21.191Z,11.76
2018-10-01T07:16:56.348Z,11.79
2018-10-01T07:17:31.988Z,11.78
2018-10-01T07:18:07.364Z,11.85
2018-10-01T07:18:41.999Z,11.75
2018-10-01T07:19:17.442Z,11.70
2018-10-01T07:19:52.278Z,11.69
2018-10-01T07:20:28.050Z,11.64
2018-10-01T07:21:02.701Z,11.56
2018-10-01T07:21:38.001Z,11.65
2018-10-01T07:22:13.351Z,11.83
2018-10-01T07:22:48.285Z,11.77
2018-10-01T07:23:23.346Z,11.81
2018-10-01T07:23:58.091Z,11.75
2018-10-01T07:24:33.366Z,11.74
2018-10-01T07:25:08.063Z,11.80
2018-10-01T07:25:43.300Z,11.85
2018-10-01T07:26:18.684Z,11.77
2018-10-01T07:26:53.640Z,11.79
2018-10-01T07:27:28.871Z,11.78
2018-10-01T07:28:04.258Z,11.74
2018-10-01T07:28:39.526Z,11.73
2018-10-01T07:29:14.178Z,11.73
2018-10-01T07:29:49.923Z,11.71
2018-10-01T07:30:24.802Z,11.79
2018-10-01T07:30:59.543Z,11.82
2018-10-01T07:31:34.285Z,11.81
2018-10-01T07:32:08.927Z,11.91
2018-10-01T07:32:43.688Z,11.70